Time;durP1;ratioP1;P1;durP2;ratioP2;P2;SDS_P1;SDS_P2;PMS_P1;PMS_P2;Temp;Humidity;BMP_temperature;BMP_pressure;BME280_temperature;BME280_humidity;BME280_pressure;Samples;Min_cycle;Max_cycle;Signal;HPM_P1;HPM_P2
2021/04/04 00:00:21;;;;;;;38.53;18.10;;;;;;;;;;5016039;28;20038;-50
2021/04/04 00:02:47;;;;;;;28.55;14.80;;;;;;;;;;5016175;28;20049;-51
2021/04/04 00:05:13;;;;;;;37.55;20.35;;;;;;;;;;5016144;28;20036;-53
2021/04/04 00:07:40;;;;;;;42.08;23.02;;;;;;;;;;5016020;28;20061;-51
2021/04/04 00:10:07;;;;;;;53.45;29.98;;;;;;;;;;5015873;28;20080;-54
2021/04/04 00:12:33;;;;;;;20.95;11.55;;;;;;;;;;5015956;28;20033;-55
2021/04/04 00:15:02;;;;;;;37.15;21.25;;;;;;;;;;5015665;28;20030;-52
2021/04/04 00:17:28;;;;;;;38.33;21.73;;;;;;;;;;5015550;28;20082;-50
2021/04/04 00:19:54;;;;;;;73.90;36.83;;;;;;;;;;5015633;28;20038;-52
2021/04/04 00:22:20;;;;;;;39.58;22.52;;;;;;;;;;5015818;28;20462;-51
2021/04/04 00:24:47;;;;;;;76.90;40.17;;;;;;;;;;5014857;28;20474;-52
2021/04/04 00:27:13;;;;;;;32.47;17.48;;;;;;;;;;5015532;28;20356;-54
2021/04/04 00:29:39;;;;;;;38.88;20.50;;;;;;;;;;5015655;28;20030;-52
2021/04/04 00:32:05;;;;;;;26.77;16.65;;;;;;;;;;5015549;28;20049;-50
2021/04/04 00:34:31;;;;;;;45.25;25.48;;;;;;;;;;5015563;28;20026;-53
2021/04/04 00:36:57;;;;;;;63.55;32.45;;;;;;;;;;5015385;28;20064;-49
2021/04/04 00:39:23;;;;;;;100.95;50.45;;;;;;;;;;4997652;28;20430;-54
2021/04/04 00:41:49;;;;;;;55.78;30.05;;;;;;;;;;4997453;28;20045;-52
2021/04/04 00:44:16;;;;;;;63.05;31.42;;;;;;;;;;5015411;28;20470;-52
2021/04/04 00:46:42;;;;;;;27.90;16.10;;;;;;;;;;5015089;28;20040;-51
2021/04/04 00:49:08;;;;;;;24.25;13.00;;;;;;;;;;5015173;28;20144;-51
2021/04/04 00:51:35;;;;;;;64.03;33.30;;;;;;;;;;5015230;28;20378;-52
2021/04/04 00:54:01;;;;;;;44.92;22.10;;;;;;;;;;5015099;28;20040;-52
2021/04/04 00:56:27;;;;;;;28.35;14.52;;;;;;;;;;5015421;28;20426;-51
2021/04/04 00:58:54;;;;;;;32.30;17.23;;;;;;;;;;5014932;28;20087;-51
2021/04/04 01:01:22;;;;;;;23.15;11.45;;;;;;;;;;5015132;28;20450;-52
2021/04/04 01:03:48;;;;;;;40.53;18.98;;;;;;;;;;5015049;28;20485;-48
2021/04/04 01:06:14;;;;;;;55.72;28.90;;;;;;;;;;5014701;28;20029;-48
2021/04/04 01:08:41;;;;;;;20.08;10.65;;;;;;;;;;4997772;28;20030;-48
2021/04/04 01:11:07;;;;;;;42.35;22.50;;;;;;;;;;5014931;28;20085;-49
2021/04/04 01:13:42;;;;;;;17.70;10.82;;;;;;;;;;5014894;28;20470;-51
2021/04/04 01:16:14;;;;;;;28.00;15.30;;;;;;;;;;5014723;28;20121;-51
2021/04/04 01:18:47;;;;;;;17.13;9.98;;;;;;;;;;5014742;28;20036;-51
2021/04/04 01:21:16;;;;;;;27.83;14.05;;;;;;;;;;5014813;28;20045;-50
2021/04/04 01:24:01;;;;;;;19.58;9.38;;;;;;;;;;5014640;28;20022;-52
2021/04/04 01:26:27;;;;;;;46.03;18.10;;;;;;;;;;5014583;28;20121;-47
2021/04/04 01:28:54;;;;;;;37.92;16.58;;;;;;;;;;5014516;28;20022;-49
2021/04/04 01:31:20;;;;;;;21.55;10.43;;;;;;;;;;5014339;28;20022;-51
2021/04/04 01:33:47;;;;;;;22.00;12.90;;;;;;;;;;5014436;28;20037;-48
2021/04/04 01:36:16;;;;;;;26.35;15.25;;;;;;;;;;5014210;28;20064;-49
2021/04/04 01:38:43;;;;;;;20.98;11.18;;;;;;;;;;5014584;28;20378;-50
2021/04/04 01:41:13;;;;;;;55.25;31.63;;;;;;;;;;5014205;28;20049;-50
2021/04/04 01:43:43;;;;;;;30.10;16.80;;;;;;;;;;5014104;28;20050;-49
2021/04/04 01:46:09;;;;;;;21.10;12.13;;;;;;;;;;5013979;28;20037;-51
2021/04/04 01:48:36;;;;;;;23.25;12.95;;;;;;;;;;5014220;28;20096;-51
2021/04/04 01:51:02;;;;;;;13.23;8.55;;;;;;;;;;5014113;28;20792;-51
2021/04/04 01:53:29;;;;;;;19.63;10.35;;;;;;;;;;5014145;28;20037;-51
2021/04/04 01:55:55;;;;;;;17.38;10.88;;;;;;;;;;5014096;28;20484;-51
2021/04/04 01:58:22;;;;;;;18.90;10.40;;;;;;;;;;5014007;28;20477;-49
2021/04/04 02:00:48;;;;;;;13.00;8.25;;;;;;;;;;5013865;28;20074;-48
2021/04/04 02:03:15;;;;;;;15.52;9.50;;;;;;;;;;5013937;28;20022;-48
2021/04/04 02:05:43;;;;;;;20.63;10.63;;;;;;;;;;5013811;28;20030;-49
2021/04/04 02:08:09;;;;;;;14.95;9.43;;;;;;;;;;5013872;28;20032;-49
2021/04/04 02:10:37;;;;;;;15.50;9.57;;;;;;;;;;5013989;28;20442;-48
2021/04/04 02:13:03;;;;;;;14.13;8.73;;;;;;;;;;5013783;28;20029;-52
2021/04/04 02:15:31;;;;;;;17.42;9.55;;;;;;;;;;5013551;28;20034;-49
2021/04/04 02:17:57;;;;;;;13.48;9.27;;;;;;;;;;5013592;28;20034;-53
2021/04/04 02:20:25;;;;;;;13.35;8.45;;;;;;;;;;5013627;28;20047;-52
2021/04/04 02:22:52;;;;;;;13.05;8.80;;;;;;;;;;5013788;28;20057;-52
2021/04/04 02:25:19;;;;;;;13.48;8.70;;;;;;;;;;5013815;28;20434;-52
2021/04/04 02:27:46;;;;;;;12.35;8.45;;;;;;;;;;5013821;28;20018;-49
2021/04/04 02:30:15;;;;;;;20.45;10.13;;;;;;;;;;5013614;28;20108;-51
2021/04/04 02:32:46;;;;;;;61.50;48.08;;;;;;;;;;5013578;28;20137;-48
2021/04/04 02:35:17;;;;;;;54.65;36.75;;;;;;;;;;5013681;28;20110;-48
2021/04/04 02:37:44;;;;;;;54.65;42.30;;;;;;;;;;5013839;28;20029;-48
2021/04/04 02:40:11;;;;;;;30.33;20.85;;;;;;;;;;5013491;28;20121;-48
2021/04/04 02:42:38;;;;;;;24.77;17.35;;;;;;;;;;5013500;28;20076;-48
2021/04/04 02:45:05;;;;;;;14.07;10.65;;;;;;;;;;5013577;28;20049;-48
2021/04/04 02:47:38;;;;;;;12.27;8.68;;;;;;;;;;5013382;28;20080;-48
2021/04/04 02:50:06;;;;;;;13.40;8.18;;;;;;;;;;5017470;28;20057;-48
2021/04/04 02:52:36;;;;;;;11.93;8.40;;;;;;;;;;5017558;28;20018;-47
2021/04/04 02:55:02;;;;;;;13.30;9.25;;;;;;;;;;5017542;28;20030;-47
2021/04/04 02:57:29;;;;;;;12.80;8.27;;;;;;;;;;5017545;28;20034;-50
2021/04/04 02:59:57;;;;;;;11.38;8.60;;;;;;;;;;5017274;28;20490;-48
2021/04/04 03:02:24;;;;;;;13.93;8.38;;;;;;;;;;5017172;28;20164;-49
2021/04/04 03:04:52;;;;;;;12.88;8.45;;;;;;;;;;5017445;28;20022;-52
2021/04/04 03:07:19;;;;;;;14.02;8.48;;;;;;;;;;5016991;28;20030;-47
2021/04/04 03:09:47;;;;;;;13.75;8.65;;;;;;;;;;5017362;28;20044;-51
2021/04/04 03:12:17;;;;;;;15.63;9.23;;;;;;;;;;5017218;28;20018;-50
2021/04/04 03:14:44;;;;;;;15.38;10.40;;;;;;;;;;5017257;28;20025;-49
2021/04/04 03:17:10;;;;;;;20.65;11.02;;;;;;;;;;5016732;28;20077;-47
2021/04/04 03:19:41;;;;;;;15.70;10.57;;;;;;;;;;5017153;28;20084;-52
2021/04/04 03:22:08;;;;;;;15.43;9.43;;;;;;;;;;5017135;28;20029;-49
2021/04/04 03:24:34;;;;;;;13.90;8.95;;;;;;;;;;5017076;28;20054;-51
2021/04/04 03:27:02;;;;;;;13.50;9.10;;;;;;;;;;4998942;28;20442;-51
2021/04/04 03:29:29;;;;;;;12.85;7.65;;;;;;;;;;5016945;28;20145;-49
2021/04/04 03:31:56;;;;;;;12.55;8.07;;;;;;;;;;5016894;28;20470;-51
2021/04/04 03:34:22;;;;;;;11.85;7.85;;;;;;;;;;5016839;28;20045;-47
2021/04/04 03:36:49;;;;;;;13.13;7.55;;;;;;;;;;5017102;28;20064;-54
2021/04/04 03:39:15;;;;;;;11.35;7.78;;;;;;;;;;5016902;28;20022;-54
2021/04/04 03:41:42;;;;;;;9.50;7.18;;;;;;;;;;5017562;28;20104;-52
2021/04/04 03:44:09;;;;;;;12.40;8.02;;;;;;;;;;5016619;28;20056;-52
2021/04/04 03:46:36;;;;;;;11.68;7.63;;;;;;;;;;5016547;28;20037;-52
2021/04/04 03:49:02;;;;;;;11.35;7.70;;;;;;;;;;5016469;28;20041;-51
2021/04/04 03:51:29;;;;;;;14.07;9.00;;;;;;;;;;5016515;28;20037;-52
2021/04/04 03:53:57;;;;;;;12.52;8.57;;;;;;;;;;5016735;28;20080;-50
2021/04/04 03:56:27;;;;;;;13.23;9.48;;;;;;;;;;5016474;28;20033;-52
2021/04/04 03:58:54;;;;;;;14.70;9.70;;;;;;;;;;5016304;28;20021;-51
2021/04/04 04:01:26;;;;;;;11.80;9.10;;;;;;;;;;5014905;28;20034;-51
2021/04/04 04:03:52;;;;;;;;;;;;;;;;;;5016732;28;20528;-49
2021/04/04 04:06:18;;;;;;;17.73;9.57;;;;;;;;;;5016285;28;19909;-52
2021/04/04 04:08:47;;;;;;;13.23;8.93;;;;;;;;;;5016007;28;20478;-52
2021/04/04 04:11:14;;;;;;;14.77;8.10;;;;;;;;;;5016035;28;20033;-51
2021/04/04 04:13:42;;;;;;;9.68;7.60;;;;;;;;;;5015936;28;20097;-52
2021/04/04 04:16:12;;;;;;;13.50;7.47;;;;;;;;;;5015721;28;20044;-51
2021/04/04 04:18:43;;;;;;;10.75;8.05;;;;;;;;;;5015938;28;20029;-51
2021/04/04 04:21:09;;;;;;;12.07;7.82;;;;;;;;;;5016003;28;20045;-51
2021/04/04 04:23:36;;;;;;;12.25;7.85;;;;;;;;;;5015844;28;20462;-51
2021/04/04 04:26:02;;;;;;;12.10;8.15;;;;;;;;;;5015760;28;20541;-51
2021/04/04 04:28:31;;;;;;;13.80;7.78;;;;;;;;;;5015658;28;20030;-52
2021/04/04 04:30:57;;;;;;;15.75;7.75;;;;;;;;;;5015688;28;20029;-52
2021/04/04 04:33:24;;;;;;;10.70;7.35;;;;;;;;;;5015608;28;20025;-51
2021/04/04 04:35:50;;;;;;;17.58;8.43;;;;;;;;;;5015636;28;20401;-50
2021/04/04 04:38:18;;;;;;;18.52;8.75;;;;;;;;;;5015609;28;20030;-52
2021/04/04 04:40:44;;;;;;;13.70;7.28;;;;;;;;;;5015451;28;20034;-51
2021/04/04 04:43:13;;;;;;;13.20;8.15;;;;;;;;;;5015333;28;20018;-49
2021/04/04 04:45:40;;;;;;;12.88;7.78;;;;;;;;;;5015263;28;20029;-52
2021/04/04 04:48:06;;;;;;;11.77;8.00;;;;;;;;;;5015330;28;20026;-50
2021/04/04 04:50:33;;;;;;;30.08;17.20;;;;;;;;;;5015200;28;20156;-51
2021/04/04 04:53:00;;;;;;;16.38;10.50;;;;;;;;;;5015249;28;20041;-50
2021/04/04 04:55:27;;;;;;;16.80;10.82;;;;;;;;;;5015333;28;20033;-51
2021/04/04 04:57:55;;;;;;;14.73;8.98;;;;;;;;;;5014970;28;20018;-53
2021/04/04 05:00:22;;;;;;;14.70;8.70;;;;;;;;;;5015236;28;20042;-52
2021/04/04 05:02:48;;;;;;;14.77;8.85;;;;;;;;;;5014995;28;20025;-51
2021/04/04 05:05:14;;;;;;;21.30;12.60;;;;;;;;;;5015314;28;20164;-50
2021/04/04 05:07:41;;;;;;;23.00;14.43;;;;;;;;;;5014911;28;20536;-50
2021/04/04 05:10:07;;;;;;;13.57;8.20;;;;;;;;;;5015002;28;20466;-52
2021/04/04 05:12:34;;;;;;;10.60;7.35;;;;;;;;;;5014430;28;20056;-52
2021/04/04 05:15:01;;;;;;;12.30;7.00;;;;;;;;;;5014914;28;20021;-48
2021/04/04 05:17:31;;;;;;;10.70;7.22;;;;;;;;;;5014552;28;20050;-52
2021/04/04 05:19:58;;;;;;;13.77;7.05;;;;;;;;;;5014747;28;20540;-52
2021/04/04 05:22:24;;;;;;;16.73;8.77;;;;;;;;;;5014833;28;20083;-53
2021/04/04 05:24:50;;;;;;;15.05;8.63;;;;;;;;;;5014710;28;20032;-52
2021/04/04 05:27:19;;;;;;;13.82;7.90;;;;;;;;;;5014564;28;20503;-49
2021/04/04 05:29:45;;;;;;;14.10;9.85;;;;;;;;;;4997046;28;20152;-49
2021/04/04 05:32:12;;;;;;;15.68;9.40;;;;;;;;;;5014382;28;20026;-53
2021/04/04 05:34:39;;;;;;;14.30;9.30;;;;;;;;;;5014481;28;20032;-52
2021/04/04 05:37:06;;;;;;;17.35;11.15;;;;;;;;;;5014426;28;20028;-52
2021/04/04 05:39:33;;;;;;;19.15;12.40;;;;;;;;;;5014321;28;20036;-49
2021/04/04 05:42:01;;;;;;;25.85;15.85;;;;;;;;;;5014338;28;20029;-52
2021/04/04 05:44:33;;;;;;;33.08;21.02;;;;;;;;;;5014399;28;20374;-50
2021/04/04 05:47:02;;;;;;;28.48;17.70;;;;;;;;;;5014274;28;20413;-53
2021/04/04 05:49:48;;;;;;;14.90;10.90;;;;;;;;;;5014195;28;20030;-48
2021/04/04 05:52:33;;;;;;;15.68;9.93;;;;;;;;;;5000737;28;20030;-52
2021/04/04 05:55:13;;;;;;;13.63;9.13;;;;;;;;;;5014338;28;20026;-50
2021/04/04 05:57:48;;;;;;;16.02;8.52;;;;;;;;;;5014240;28;20060;-52
2021/04/04 06:00:16;;;;;;;13.65;7.53;;;;;;;;;;5014037;28;20442;-50
2021/04/04 06:03:03;;;;;;;13.95;7.80;;;;;;;;;;5013914;28;20025;-47
2021/04/04 06:05:48;;;;;;;10.75;7.80;;;;;;;;;;5013909;28;20037;-50
2021/04/04 06:08:32;;;;;;;14.60;7.68;;;;;;;;;;5013904;28;20034;-50
2021/04/04 06:11:13;;;;;;;12.23;8.70;;;;;;;;;;5013935;28;20022;-48
2021/04/04 06:13:51;;;;;;;11.70;7.50;;;;;;;;;;5013902;28;20018;-49
2021/04/04 06:16:44;;;;;;;12.73;8.30;;;;;;;;;;5013468;28;20498;-48
2021/04/04 06:19:10;;;;;;;24.45;14.13;;;;;;;;;;4983835;28;20053;-48
2021/04/04 06:21:38;;;;;;;14.15;8.82;;;;;;;;;;5013829;28;20486;-48
2021/04/04 06:24:08;;;;;;;12.10;7.78;;;;;;;;;;5013004;28;20029;-47
2021/04/04 06:26:39;;;;;;;15.95;8.85;;;;;;;;;;5013818;28;20485;-53
2021/04/04 06:29:27;;;;;;;21.25;9.63;;;;;;;;;;5013636;28;20083;-50
2021/04/04 06:32:05;;;;;;;19.17;10.93;;;;;;;;;;5013746;28;20029;-47
2021/04/04 06:34:38;;;;;;;19.25;10.70;;;;;;;;;;5013580;28;20513;-48
2021/04/04 06:37:23;;;;;;;21.35;10.50;;;;;;;;;;5013678;28;20026;-47
2021/04/04 06:39:57;;;;;;;15.32;9.07;;;;;;;;;;5013508;28;20533;-47
2021/04/04 06:42:35;;;;;;;16.38;8.82;;;;;;;;;;5013553;28;20032;-47
2021/04/04 06:45:13;;;;;;;17.27;10.05;;;;;;;;;;5013436;28;20018;-50
2021/04/04 06:47:39;;;;;;;15.40;8.30;;;;;;;;;;5013639;28;20026;-50
2021/04/04 06:50:17;;;;;;;14.60;6.90;;;;;;;;;;5013524;28;20490;-48
2021/04/04 06:52:43;;;;;;;11.85;7.13;;;;;;;;;;5013454;28;20036;-52
2021/04/04 06:55:21;;;;;;;12.07;7.20;;;;;;;;;;5013656;28;20064;-49
2021/04/04 06:57:49;;;;;;;10.02;6.18;;;;;;;;;;5013467;28;20470;-51
2021/04/04 07:00:19;;;;;;;13.88;6.85;;;;;;;;;;4995720;28;20371;-48
2021/04/04 07:03:04;;;;;;;12.20;8.05;;;;;;;;;;5013301;28;20054;-50
2021/04/04 07:05:32;;;;;;;20.67;7.85;;;;;;;;;;5013347;28;20026;-49
2021/04/04 07:08:17;;;;;;;12.10;7.45;;;;;;;;;;5013351;28;20022;-48
2021/04/04 07:11:01;;;;;;;16.13;9.90;;;;;;;;;;5013365;28;20026;-49
2021/04/04 07:13:45;;;;;;;12.75;7.45;;;;;;;;;;5013336;28;20109;-51
2021/04/04 07:16:20;;;;;;;9.65;6.47;;;;;;;;;;5013015;28;20034;-48
2021/04/04 07:19:19;;;;;;;10.02;6.38;;;;;;;;;;4996014;28;20037;-49
2021/04/04 07:22:00;;;;;;;10.18;6.65;;;;;;;;;;4933806;29;20539;-48
2021/04/04 07:24:45;;;;;;;12.20;6.60;;;;;;;;;;4933748;29;20074;-49
2021/04/04 07:27:15;;;;;;;9.75;6.03;;;;;;;;;;4933832;29;20480;-49
2021/04/04 07:30:02;;;;;;;9.68;6.25;;;;;;;;;;4933672;29;20039;-47
2021/04/04 07:32:46;;;;;;;10.43;5.57;;;;;;;;;;4933827;29;20123;-50
2021/04/04 07:35:12;;;;;;;9.68;6.68;;;;;;;;;;4935530;29;20034;-50
2021/04/04 07:37:39;;;;;;;11.07;6.32;;;;;;;;;;4937121;29;20043;-49
2021/04/04 07:40:23;;;;;;;8.10;5.35;;;;;;;;;;4936968;29;20073;-52
2021/04/04 07:43:09;;;;;;;11.40;6.53;;;;;;;;;;4937210;29;20036;-52
2021/04/04 07:45:42;;;;;;;8.93;6.57;;;;;;;;;;4936814;29;20043;-51
2021/04/04 07:48:08;;;;;;;8.70;5.95;;;;;;;;;;4937007;29;20039;-51
2021/04/04 07:50:35;;;;;;;12.35;6.75;;;;;;;;;;4936852;29;20075;-48
2021/04/04 07:53:09;;;;;;;19.58;6.85;;;;;;;;;;4936925;29;20451;-49
2021/04/04 07:55:42;;;;;;;12.75;7.57;;;;;;;;;;4925574;29;20031;-51
2021/04/04 07:58:28;;;;;;;18.80;11.88;;;;;;;;;;4982128;28;20565;-51
2021/04/04 08:00:59;;;;;;;25.58;13.38;;;;;;;;;;4996634;28;20121;-48
2021/04/04 08:03:29;;;;;;;31.20;18.50;;;;;;;;;;5006192;28;20112;-51
2021/04/04 08:06:00;;;;;;;39.47;24.80;;;;;;;;;;4998148;28;20667;-52
2021/04/04 08:08:34;;;;;;;90.07;48.60;;;;;;;;;;5016152;28;20025;-54
2021/04/04 08:11:05;;;;;;;72.90;38.35;;;;;;;;;;5015963;28;20490;-55
2021/04/04 08:13:42;;;;;;;57.58;31.90;;;;;;;;;;5015928;28;20022;-54
2021/04/04 08:16:08;;;;;;;35.92;21.05;;;;;;;;;;5015537;28;20124;-52
2021/04/04 08:18:35;;;;;;;42.13;23.77;;;;;;;;;;5015878;28;20442;-50
2021/04/04 08:21:05;;;;;;;46.80;25.42;;;;;;;;;;5015635;28;20038;-49
2021/04/04 08:23:43;;;;;;;79.57;46.75;;;;;;;;;;5015585;28;20014;-49
2021/04/04 08:26:35;;;;;;;77.13;44.38;;;;;;;;;;5015559;28;20480;-50
2021/04/04 08:29:14;;;;;;;106.13;58.28;;;;;;;;;;4978170;28;20065;-51
2021/04/04 08:31:42;;;;;;;69.28;41.58;;;;;;;;;;5015459;28;20049;-48
2021/04/04 08:34:12;;;;;;;308.63;173.30;;;;;;;;;;5014910;28;20022;-52
2021/04/04 08:36:49;;;;;;;202.38;133.52;;;;;;;;;;5015555;28;20024;-52
2021/04/04 08:39:18;;;;;;;25.75;15.75;;;;;;;;;;5015572;28;20434;-52
2021/04/04 08:41:45;;;;;;;34.55;21.50;;;;;;;;;;5015543;28;20108;-52
2021/04/04 08:44:31;;;;;;;22.95;12.40;;;;;;;;;;5015407;28;20022;-50
2021/04/04 08:47:12;;;;;;;861.85;568.95;;;;;;;;;;5014420;28;20571;-53
2021/04/04 08:49:38;;;;;;;28.08;14.77;;;;;;;;;;5015138;28;20088;-52
2021/04/04 08:52:12;;;;;;;74.75;45.42;;;;;;;;;;5015293;28;20026;-52
2021/04/04 08:54:41;;;;;;;30.08;15.93;;;;;;;;;;5015148;28;20070;-52
2021/04/04 08:57:08;;;;;;;72.20;37.63;;;;;;;;;;5015039;28;20049;-52
2021/04/04 08:59:34;;;;;;;35.03;20.02;;;;;;;;;;5015035;28;20022;-53
2021/04/04 09:02:02;;;;;;;33.85;21.40;;;;;;;;;;5014715;28;20096;-53
2021/04/04 09:04:28;;;;;;;15.13;8.88;;;;;;;;;;5014503;28;20025;-52
2021/04/04 09:07:01;;;;;;;15.82;10.43;;;;;;;;;;5014942;28;20026;-52
2021/04/04 09:09:31;;;;;;;37.15;19.23;;;;;;;;;;5014947;28;20046;-53
2021/04/04 09:12:00;;;;;;;47.85;26.60;;;;;;;;;;5014715;28;20025;-49
2021/04/04 09:14:33;;;;;;;24.98;11.50;;;;;;;;;;5014892;28;20109;-51
2021/04/04 09:17:00;;;;;;;35.10;19.60;;;;;;;;;;5014430;28;20494;-51
2021/04/04 09:19:37;;;;;;;22.48;12.65;;;;;;;;;;5014652;28;20446;-51
2021/04/04 09:22:08;;;;;;;18.73;9.93;;;;;;;;;;5014669;28;20124;-50
2021/04/04 09:24:34;;;;;;;;;;;;;;;;;;5014922;28;20018;-46
2021/04/04 09:27:01;;;;;;;18.15;8.05;;;;;;;;;;5014576;28;19912;-50
2021/04/04 09:29:28;;;;;;;27.42;13.63;;;;;;;;;;5014594;28;20022;-51
2021/04/04 09:31:56;;;;;;;14.63;8.30;;;;;;;;;;5014637;28;20079;-50
2021/04/04 09:34:25;;;;;;;20.33;11.60;;;;;;;;;;5014330;28;20030;-50
2021/04/04 09:36:52;;;;;;;27.52;14.32;;;;;;;;;;5014321;28;20490;-46
2021/04/04 09:39:29;;;;;;;52.55;26.35;;;;;;;;;;5014296;28;20033;-49
2021/04/04 09:41:56;;;;;;;41.42;23.15;;;;;;;;;;5014312;28;20061;-49
2021/04/04 09:44:31;;;;;;;17.35;9.77;;;;;;;;;;5014283;28;20026;-48
2021/04/04 09:47:01;;;;;;;24.02;13.43;;;;;;;;;;5014168;28;20017;-48
2021/04/04 09:49:34;;;;;;;56.30;29.30;;;;;;;;;;5014138;28;20453;-46
2021/04/04 09:52:13;;;;;;;134.60;71.88;;;;;;;;;;5014428;28;20049;-48
2021/04/04 09:54:54;;;;;;;53.63;27.67;;;;;;;;;;5014134;28;20548;-49
2021/04/04 09:57:20;;;;;;;;;;;;;;;;;;5014470;28;20029;-48
2021/04/04 09:59:46;;;;;;;51.92;26.10;;;;;;;;;;5014023;28;19913;-46
2021/04/04 10:02:12;;;;;;;34.30;18.83;;;;;;;;;;5013947;28;20057;-48
2021/04/04 10:04:45;;;;;;;50.28;27.30;;;;;;;;;;5014069;28;20086;-47
2021/04/04 10:07:11;;;;;;;45.58;24.83;;;;;;;;;;4995974;28;20065;-48
2021/04/04 10:09:38;;;;;;;53.00;29.23;;;;;;;;;;5013956;28;20022;-47
2021/04/04 10:12:05;;;;;;;93.07;48.67;;;;;;;;;;5014079;28;20391;-47
2021/04/04 10:14:31;;;;;;;17.65;11.05;;;;;;;;;;5014072;28;20105;-46
2021/04/04 10:17:09;;;;;;;31.83;20.30;;;;;;;;;;5013597;28;20042;-47
2021/04/04 10:19:54;;;;;;;46.60;23.38;;;;;;;;;;5013765;28;20025;-52
2021/04/04 10:22:21;;;;;;;32.30;14.15;;;;;;;;;;5013828;28;20045;-55
2021/04/04 10:24:47;;;;;;;23.88;14.00;;;;;;;;;;5013773;28;20026;-53
2021/04/04 10:27:25;;;;;;;19.35;11.02;;;;;;;;;;5013717;28;20374;-50
2021/04/04 10:30:12;;;;;;;11.80;6.05;;;;;;;;;;5002667;28;20128;-47
2021/04/04 10:32:39;;;;;;;8.93;6.00;;;;;;;;;;4995989;28;20066;-46
2021/04/04 10:35:09;;;;;;;19.80;9.45;;;;;;;;;;4996446;28;20021;-46
2021/04/04 10:37:38;;;;;;;34.40;20.88;;;;;;;;;;4996402;28;20698;-47
2021/04/04 10:40:09;;;;;;;28.08;14.38;;;;;;;;;;4995535;28;20061;-46
2021/04/04 10:42:35;;;;;;;27.90;15.07;;;;;;;;;;4996496;28;20548;-47
2021/04/04 10:45:10;;;;;;;34.15;19.55;;;;;;;;;;4996322;28;20026;-45
2021/04/04 10:47:37;;;;;;;31.90;18.38;;;;;;;;;;4995271;28;20034;-47
2021/04/04 10:50:09;;;;;;;35.65;19.83;;;;;;;;;;4996746;28;20033;-47
2021/04/04 10:52:35;;;;;;;51.78;29.02;;;;;;;;;;4996128;28;20072;-46
2021/04/04 10:55:02;;;;;;;53.25;29.35;;;;;;;;;;4996339;28;20034;-48
2021/04/04 10:57:31;;;;;;;37.05;19.10;;;;;;;;;;4996118;28;20452;-49
2021/04/04 10:59:57;;;;;;;51.40;26.75;;;;;;;;;;4995394;28;20026;-48
2021/04/04 11:02:24;;;;;;;47.03;27.35;;;;;;;;;;4996483;28;20461;-45
2021/04/04 11:04:50;;;;;;;43.53;23.33;;;;;;;;;;4996242;28;20036;-46
2021/04/04 11:07:19;;;;;;;46.80;27.05;;;;;;;;;;4996764;28;20429;-46
2021/04/04 11:09:48;;;;;;;33.38;18.10;;;;;;;;;;4997483;28;20817;-46
2021/04/04 11:12:16;;;;;;;30.10;18.17;;;;;;;;;;4999987;28;20030;-47
2021/04/04 11:14:47;;;;;;;82.53;43.25;;;;;;;;;;4998953;28;20348;-47
2021/04/04 11:17:14;;;;;;;63.90;33.60;;;;;;;;;;4999983;28;20232;-47
2021/04/04 11:19:45;;;;;;;35.47;17.85;;;;;;;;;;5000335;28;20025;-46
2021/04/04 11:22:13;;;;;;;27.20;16.25;;;;;;;;;;5000268;28;20669;-47
2021/04/04 11:24:39;;;;;;;27.17;15.93;;;;;;;;;;5000011;28;20432;-48
2021/04/04 11:27:05;;;;;;;33.35;18.33;;;;;;;;;;4999860;28;20771;-49
2021/04/04 11:29:43;;;;;;;30.48;18.15;;;;;;;;;;4999973;28;20022;-48
2021/04/04 11:32:17;;;;;;;40.40;21.92;;;;;;;;;;4999800;28;20029;-46
2021/04/04 11:34:45;;;;;;;52.75;27.23;;;;;;;;;;4999542;28;20041;-46
2021/04/04 11:37:16;;;;;;;31.27;16.67;;;;;;;;;;4999174;28;20028;-48
2021/04/04 11:40:02;;;;;;;37.10;20.65;;;;;;;;;;4998929;28;20446;-46
2021/04/04 11:42:28;;;;;;;26.17;14.80;;;;;;;;;;4999604;28;20042;-48
2021/04/04 11:44:54;;;;;;;30.73;16.10;;;;;;;;;;4999291;28;20493;-45
2021/04/04 11:47:20;;;;;;;31.23;16.30;;;;;;;;;;4999490;28;20557;-47
2021/04/04 11:49:48;;;;;;;23.42;13.02;;;;;;;;;;4999314;28;20478;-49
2021/04/04 11:52:34;;;;;;;58.22;27.85;;;;;;;;;;4998883;28;20034;-49
2021/04/04 11:55:00;;;;;;;53.60;23.67;;;;;;;;;;4980361;28;20394;-45
2021/04/04 11:57:31;;;;;;;31.77;17.08;;;;;;;;;;4999201;28;20021;-45
2021/04/04 11:59:59;;;;;;;26.30;13.43;;;;;;;;;;4999099;28;20139;-45
2021/04/04 12:02:26;;;;;;;37.30;17.92;;;;;;;;;;4999292;28;20033;-47
2021/04/04 12:05:10;;;;;;;31.15;15.82;;;;;;;;;;4998656;28;20022;-47
2021/04/04 12:07:49;;;;;;;19.45;9.70;;;;;;;;;;4998797;28;20316;-46
2021/04/04 12:10:16;;;;;;;18.30;10.63;;;;;;;;;;4999141;28;20018;-49
2021/04/04 12:12:43;;;;;;;21.40;11.27;;;;;;;;;;4999084;28;20437;-48
2021/04/04 12:15:10;;;;;;;19.85;7.28;;;;;;;;;;4997627;28;20014;-48
2021/04/04 12:17:36;;;;;;;14.95;8.20;;;;;;;;;;4998717;28;20049;-47
2021/04/04 12:20:05;;;;;;;22.27;12.18;;;;;;;;;;4998683;28;20033;-45
2021/04/04 12:22:39;;;;;;;22.55;14.70;;;;;;;;;;4997814;28;20045;-46
2021/04/04 12:25:05;;;;;;;32.30;17.58;;;;;;;;;;4998910;28;20029;-44
2021/04/04 12:27:32;;;;;;;126.20;77.25;;;;;;;;;;4998754;28;20041;-46
2021/04/04 12:29:58;;;;;;;42.15;24.98;;;;;;;;;;4998706;28;20028;-49
2021/04/04 12:32:27;;;;;;;71.75;39.92;;;;;;;;;;4998912;28;20037;-47
2021/04/04 12:34:54;;;;;;;118.13;64.95;;;;;;;;;;4998549;28;20022;-46
2021/04/04 12:37:21;;;;;;;159.75;87.03;;;;;;;;;;4980380;28;20037;-47
2021/04/04 12:39:47;;;;;;;84.75;44.65;;;;;;;;;;4997372;28;20018;-46
2021/04/04 12:42:17;;;;;;;43.65;21.42;;;;;;;;;;4998649;28;20394;-46
2021/04/04 12:44:44;;;;;;;24.65;13.90;;;;;;;;;;4998349;28;20517;-45
2021/04/04 12:47:11;;;;;;;17.60;10.38;;;;;;;;;;4998246;28;20033;-50
2021/04/04 12:49:38;;;;;;;14.88;8.98;;;;;;;;;;4998303;28;20022;-48
2021/04/04 12:52:05;;;;;;;17.90;10.90;;;;;;;;;;4998785;28;20021;-47
2021/04/04 12:54:31;;;;;;;13.70;8.27;;;;;;;;;;4996692;28;20225;-47
2021/04/04 12:56:57;;;;;;;16.27;8.43;;;;;;;;;;4997868;28;20053;-47
2021/04/04 12:59:24;;;;;;;12.00;6.75;;;;;;;;;;4998375;28;20040;-47
2021/04/04 13:01:54;;;;;;;9.80;6.05;;;;;;;;;;4998221;28;20053;-47
2021/04/04 13:04:23;;;;;;;12.82;7.03;;;;;;;;;;4997797;28;20133;-47
2021/04/04 13:06:50;;;;;;;18.00;8.80;;;;;;;;;;4997881;28;20049;-45
2021/04/04 13:09:17;;;;;;;24.08;11.43;;;;;;;;;;4996709;28;20108;-45
2021/04/04 13:11:44;;;;;;;29.33;12.73;;;;;;;;;;4998002;28;20091;-47
2021/04/04 13:14:13;;;;;;;34.65;15.65;;;;;;;;;;4997735;28;20583;-45
2021/04/04 13:16:40;;;;;;;95.28;49.00;;;;;;;;;;4997398;28;20173;-50
2021/04/04 13:19:06;;;;;;;54.55;26.73;;;;;;;;;;4997583;28;20066;-50
2021/04/04 13:21:33;;;;;;;26.73;11.73;;;;;;;;;;4997560;28;20390;-48
2021/04/04 13:24:20;;;;;;;32.08;17.08;;;;;;;;;;4997500;28;20535;-48
2021/04/04 13:26:47;;;;;;;21.20;11.93;;;;;;;;;;4996722;28;20512;-48
2021/04/04 13:29:18;;;;;;;25.45;14.70;;;;;;;;;;4997551;28;20026;-48
2021/04/04 13:31:57;;;;;;;31.25;16.23;;;;;;;;;;4997079;28;20026;-47
2021/04/04 13:34:24;;;;;;;29.35;13.93;;;;;;;;;;4997363;28;20538;-47
2021/04/04 13:36:51;;;;;;;26.48;13.13;;;;;;;;;;4997461;28;20026;-52
2021/04/04 13:39:22;;;;;;;18.33;10.98;;;;;;;;;;4996900;28;20089;-48
2021/04/04 13:41:48;;;;;;;15.40;9.75;;;;;;;;;;4997476;28;20032;-51
2021/04/04 13:44:15;;;;;;;15.45;8.88;;;;;;;;;;4997575;28;20033;-51
2021/04/04 13:46:48;;;;;;;14.20;9.13;;;;;;;;;;4997448;28;20041;-50
2021/04/04 13:49:15;;;;;;;19.50;11.02;;;;;;;;;;4996758;28;20072;-48
2021/04/04 13:51:45;;;;;;;18.17;9.93;;;;;;;;;;4995723;28;20111;-49
2021/04/04 13:54:11;;;;;;;16.42;10.63;;;;;;;;;;4997104;28;20538;-50
2021/04/04 13:56:48;;;;;;;17.08;10.50;;;;;;;;;;4997203;28;20029;-49
2021/04/04 13:59:24;;;;;;;21.70;12.35;;;;;;;;;;4996148;28;20386;-50
2021/04/04 14:01:54;;;;;;;29.13;14.43;;;;;;;;;;4996224;28;20055;-51
2021/04/04 14:04:20;;;;;;;19.88;10.68;;;;;;;;;;4995406;28;20030;-48
2021/04/04 14:06:51;;;;;;;15.45;7.10;;;;;;;;;;4997032;28;20490;-49
2021/04/04 14:09:17;;;;;;;15.82;9.02;;;;;;;;;;4997135;28;20022;-46
2021/04/04 14:11:44;;;;;;;22.60;9.18;;;;;;;;;;4996593;28;20764;-49
2021/04/04 14:14:11;;;;;;;12.82;7.20;;;;;;;;;;4996603;28;20030;-47
2021/04/04 14:16:37;;;;;;;12.32;6.70;;;;;;;;;;4996212;28;20052;-47
2021/04/04 14:19:06;;;;;;;11.02;7.13;;;;;;;;;;4996597;28;20025;-48
2021/04/04 14:21:32;;;;;;;13.98;7.22;;;;;;;;;;4996771;28;20532;-49
2021/04/04 14:23:58;;;;;;;14.18;7.70;;;;;;;;;;4996813;28;20474;-51
2021/04/04 14:26:25;;;;;;;15.38;7.00;;;;;;;;;;4996639;28;20021;-50
2021/04/04 14:28:51;;;;;;;16.80;7.60;;;;;;;;;;4996454;28;20041;-50
2021/04/04 14:31:17;;;;;;;12.80;7.18;;;;;;;;;;4996634;28;20026;-49
2021/04/04 14:33:43;;;;;;;13.98;7.60;;;;;;;;;;4996563;28;20034;-47
2021/04/04 14:36:11;;;;;;;11.35;6.30;;;;;;;;;;4996667;28;20022;-50
2021/04/04 14:38:37;;;;;;;10.02;6.15;;;;;;;;;;4996669;28;20029;-47